Flight Track Log - Related Links

Times and Time Zones

All times are in EDT time to prevent confusion due to time zone crossing. See the N904ER flight status page for this flight to view local times or setup timezone preferences in your user account.

Time Position Orientation Groundspeed Altitude Reporting Facility
EDT Latitude Longitude Course Direction KTS MPH feet Rate Location/Type
Fri 11:42:58 PM 27.7178 -80.4247 298° West 134 154 2,600  Level Miami Center
Fri 11:44:57 PM 27.7833 -80.4500 341° North 134 154 4,000 670 Climbing Orlando TRACON
Fri 11:45:57 PM 27.8167 -80.4667 336° Northwest 129 148 4,600 700 Climbing Orlando TRACON
Fri 11:46:57 PM 27.8500 -80.5000 319° Northwest 130 150 5,400 750 Climbing Orlando TRACON
Fri 11:47:57 PM 27.8833 -80.5167 336° Northwest 127 146 6,100 700 Climbing Orlando TRACON
Fri 11:48:57 PM 27.9167 -80.5333 336° Northwest 125 144 6,800 500 Climbing Orlando TRACON
Fri 11:49:57 PM 27.9500 -80.5500 336° Northwest 129 148 7,100 150 Climbing Orlando TRACON
Fri 11:50:57 PM 27.9833 -80.5667 336° Northwest 146 168 7,100 -50 Level Orlando TRACON
Fri 11:51:57 PM 28.0167 -80.5833 336° Northwest 151 174 7,000 -50 Descending Orlando TRACON
Fri 11:52:57 PM 28.0500 -80.6000 336° Northwest 150 173 7,000  Level Orlando TRACON
Fri 11:53:51 PM 28.1000 -80.6333 330° Northwest 150 173 7,000  Level Orlando TRACON
Fri 11:54:51 PM 28.1333 -80.6500 336° Northwest 152 175 7,000  Level Orlando TRACON
Fri 11:55:52 PM 28.1667 -80.6667 336° Northwest 153 176 7,000  Level Orlando TRACON
Fri 11:56:52 PM 28.2167 -80.6833 344° North 153 176 7,000  Level Orlando TRACON
Fri 11:57:52 PM 28.2500 -80.7000 336° Northwest 152 175 7,000  Level Orlando TRACON
Fri 11:58:52 PM 28.2833 -80.7000 360° North 151 174 7,000  Level Orlando TRACON
Fri 11:59:58 PM 28.3333 -80.7333 330° Northwest 149 171 7,000  Level Orlando TRACON
Sat 12:00:58 AM 28.3667 -80.7333 360° North 151 174 7,000  Level Orlando TRACON
Sat 12:01:58 AM 28.4167 -80.7500 344° North 151 174 7,000  Level Orlando TRACON
Sat 12:02:58 AM 28.4500 -80.7667 336° Northwest 152 175 7,000  Level Orlando TRACON
Sat 12:03:58 AM 28.5000 -80.7833 344° North 151 174 7,000  Level Orlando TRACON
Sat 12:04:58 AM 28.5333 -80.8000 336° Northwest 151 174 7,000 -50 Level Orlando TRACON
Sat 12:05:58 AM 28.5667 -80.8167 336° Northwest 153 176 6,900 -333 Descending Orlando TRACON
Sat 12:07:04 AM 28.6167 -80.8333 344° North 167 192 6,300 -619 Descending Orlando TRACON
Sat 12:08:04 AM 28.6667 -80.8500 344° North 168 193 5,600 -650 Descending Orlando TRACON
Sat 12:09:04 AM 28.7000 -80.8667 336° Northwest 169 194 5,000 -220 Descending Orlando TRACON
Sat 12:10:48 AM 28.7753 -80.9053 336° Northwest 151 174 5,000  Level Jacksonville Center
Sat 12:11:48 AM 28.8172 -80.9211 342° North 149 171 5,000  Level Jacksonville Center
Sat 12:12:49 AM 28.8572 -80.9369 341° North 151 174 5,000  Level Jacksonville Center
Sat 12:13:49 AM 28.8969 -80.9503 344° North 152 175 5,000 -99 Level Jacksonville Center
Sat 12:14:50 AM 28.9369 -80.9708 336° Northwest 152 175 4,800 -393 Descending Jacksonville Center
Sat 12:15:51 AM 28.9606 -81.0156 301° West 171 197 4,200 -645 Descending Jacksonville Center
Sat 12:16:51 AM 28.9842 -81.0603 301° West 172 198 3,500 -645 Descending Jacksonville Center
Sat 12:17:52 AM 29.0142 -81.1069 306° West 176 203 2,900 -694 Descending Jacksonville Center
Sat 12:18:52 AM 29.0419 -81.1564 303° West 184 212 2,100 -446 Descending Jacksonville Center
Sat 12:19:53 AM 29.0717 -81.2033 306° West 172 198 2,000 -148 Descending Jacksonville Center
Sat 12:20:54 AM 29.1033 -81.2339 320° Northwest 153 176 1,800 -149 Descending Jacksonville Center
Sat 12:21:54 AM 29.1261 -81.2072 46° Northeast 106 122 1,700 -50 Descending Jacksonville Center
Sat 12:22:55 AM 29.1361 -81.1761 70° East 91 105 1,700 -99 Level Jacksonville Center
Sat 12:23:55 AM 29.1461 -81.1500 66° East 99 114 1,500 -397 Descending Jacksonville Center
Sat 12:24:56 AM 29.1561 -81.1189 70° East 105 121 900 -590 Descending Jacksonville Center
Sat 12:26:00 AM 29.1640 -81.0672 80° East  Level FlightAware Approximate
Sat 12:33:00 AM 29.1667 -81.0500 67° East  Level FlightAware Approximate
Sat 12:34:00 AM 29.1799 -81.0581 67° East  Level Estimated
Sat 12:35:00 AM 29.1799 -81.0581 67° East  Level Estimated
Sat 12:36:00 AM 29.1799 -81.0581 67° East  Level Estimated

Login

Don't have an account? Register now (free) for customized features, flight alerts, and more!